createdAt,value
2022-10-14T16:28:54.775Z,100342.31
2022-10-14T16:31:23.489Z,100339.97
2022-10-14T16:33:55.980Z,100334.13
2022-10-14T16:36:26.612Z,100336.97
2022-10-14T16:38:58.244Z,100339.47
2022-10-14T16:41:29.319Z,100338.47
2022-10-14T16:43:59.570Z,100340.97
2022-10-14T16:46:43.350Z,100340.13
2022-10-14T16:49:12.238Z,100342.13
2022-10-14T16:51:41.292Z,100338.59
2022-10-14T16:54:11.669Z,100342.13
2022-10-14T16:56:56.885Z,100346.94
2022-10-14T16:59:28.554Z,100345.59
2022-10-14T17:01:57.315Z,100344.44
2022-10-14T17:04:26.903Z,100346.44
2022-10-14T17:07:07.399Z,100345.59
2022-10-14T17:09:39.546Z,100343.13
2022-10-14T17:12:13.876Z,100348.09
2022-10-14T17:14:44.811Z,100351.06
2022-10-14T17:17:14.036Z,100351.06
2022-10-14T17:19:43.153Z,100344.91
2022-10-14T17:22:13.287Z,100349.22
2022-10-14T17:24:42.288Z,100354.00
2022-10-14T17:27:11.389Z,100340.38
2022-10-14T17:29:40.197Z,100346.38
2022-10-14T17:32:12.880Z,100348.00
2022-10-14T17:34:41.387Z,100345.03
2022-10-14T17:37:10.263Z,100344.00
2022-10-14T17:39:39.375Z,100348.28
2022-10-14T17:42:08.246Z,100341.97
2022-10-14T17:44:43.388Z,100344.09
2022-10-14T17:47:14.183Z,100344.44
2022-10-14T17:49:43.395Z,100341.91
2022-10-14T17:52:12.761Z,100342.84
2022-10-14T17:54:43.962Z,100340.50
2022-10-14T17:57:12.793Z,100343.34
2022-10-14T17:59:43.293Z,100330.53
2022-10-14T18:02:18.416Z,100338.97
2022-10-14T18:04:48.265Z,100347.06
2022-10-14T18:07:19.827Z,100330.28
2022-10-14T18:09:49.334Z,100339.09
2022-10-14T18:12:18.257Z,100337.22
2022-10-14T18:14:47.187Z,100328.41
2022-10-14T18:17:19.304Z,100322.91
2022-10-14T18:19:52.035Z,100333.97
2022-10-14T18:22:21.414Z,100335.81
2022-10-14T18:24:50.403Z,100333.31
2022-10-14T18:27:19.298Z,100327.00
2022-10-14T18:29:48.322Z,100336.31
2022-10-14T18:32:19.030Z,100331.31
2022-10-14T18:34:47.330Z,100342.59
2022-10-14T18:37:18.724Z,100331.13
2022-10-14T18:39:47.619Z,100335.09
2022-10-14T18:42:19.970Z,100338.03
2022-10-14T18:44:49.985Z,100339.94
2022-10-14T18:47:20.171Z,100339.22
2022-10-14T18:49:49.893Z,100338.34
2022-10-14T18:52:21.180Z,100341.19
2022-10-14T18:54:51.677Z,100339.31
2022-10-14T18:57:21.166Z,100337.47
2022-10-14T18:59:51.348Z,100323.72
2022-10-14T19:02:21.684Z,100335.97
2022-10-14T19:04:50.197Z,100337.25
2022-10-14T19:07:18.903Z,100341.13
2022-10-14T19:09:48.181Z,100326.34
2022-10-14T19:12:36.208Z,100327.94
2022-10-14T19:15:05.831Z,100332.78
2022-10-14T19:17:36.058Z,100331.78
2022-10-14T19:20:08.453Z,100324.81
2022-10-14T19:22:40.950Z,100324.13
2022-10-14T19:25:10.408Z,100325.81
2022-10-14T19:27:39.143Z,100316.34
2022-10-14T19:30:09.245Z,100321.50
2022-10-14T19:32:40.503Z,100322.78
2022-10-14T19:35:09.731Z,100317.25
2022-10-14T19:37:38.256Z,100311.66
2022-10-14T19:40:08.125Z,100320.13
2022-10-14T19:42:37.115Z,100317.25
2022-10-14T19:45:06.484Z,100317.25
2022-10-14T19:47:35.207Z,100319.03
2022-10-14T19:50:06.118Z,100309.63
2022-10-14T19:52:34.644Z,100319.03
2022-10-14T19:55:03.407Z,100317.06
2022-10-14T19:57:32.082Z,100322.06
2022-10-14T20:00:00.820Z,100319.41
2022-10-14T20:02:29.719Z,100316.59
2022-10-14T20:04:58.405Z,100326.59
2022-10-14T20:07:30.773Z,100325.84
2022-10-14T20:10:02.586Z,100316.91
2022-10-14T20:12:31.862Z,100324.19
2022-10-14T20:15:00.507Z,100321.69
2022-10-14T20:17:29.370Z,100326.44
2022-10-14T20:19:58.256Z,100327.22
2022-10-14T20:22:26.715Z,100325.38
2022-10-14T20:24:57.017Z,100321.41
2022-10-14T20:27:26.019Z,100317.13
2022-10-14T20:29:55.139Z,100316.75
2022-10-14T20:32:23.980Z,100321.78
2022-10-14T20:34:52.434Z,100321.69
2022-10-14T20:37:24.247Z,100318.22
2022-10-14T20:39:57.467Z,100316.28
2022-10-14T20:42:26.209Z,100309.25
2022-10-14T20:44:55.657Z,100316.81
2022-10-14T20:47:24.920Z,100307.50
2022-10-14T20:49:53.602Z,100302.50
2022-10-14T20:52:22.429Z,100307.56
2022-10-14T20:54:51.292Z,100305.31
2022-10-14T20:57:21.774Z,100304.63
2022-10-14T20:59:50.320Z,100301.00
2022-10-14T21:02:21.064Z,100307.72
2022-10-14T21:04:49.511Z,100308.31
2022-10-14T21:07:20.162Z,100305.13
2022-10-14T21:09:50.510Z,100305.56
2022-10-14T21:12:19.923Z,100297.22
2022-10-14T21:14:51.841Z,100309.91
2022-10-14T21:17:20.663Z,100304.09
2022-10-14T21:19:49.638Z,100298.38
2022-10-14T21:22:18.432Z,100297.97
2022-10-14T21:24:47.070Z,100299.66
2022-10-14T21:27:15.762Z,100294.47
2022-10-14T21:29:44.588Z,100301.03
2022-10-14T21:32:14.704Z,100301.03
2022-10-14T21:34:43.090Z,100291.06
2022-10-14T21:37:12.261Z,100288.00
2022-10-14T21:39:41.423Z,100291.91
2022-10-14T21:42:10.742Z,100285.06
2022-10-14T21:44:39.535Z,100291.78
2022-10-14T21:47:11.191Z,100283.16
2022-10-14T21:49:41.061Z,100284.41
2022-10-14T21:52:09.817Z,100288.31
2022-10-14T21:54:38.616Z,100270.78
2022-10-14T21:57:07.445Z,100284.28
2022-10-14T21:59:36.298Z,100279.59
2022-10-14T22:02:05.207Z,100280.56
2022-10-14T22:04:37.437Z,100278.88
2022-10-14T22:07:11.239Z,100280.25
2022-10-14T22:09:42.729Z,100278.19
2022-10-14T22:12:12.438Z,100282.66
2022-10-14T22:14:41.498Z,100273.59
2022-10-14T22:17:10.477Z,100268.47
2022-10-14T22:19:40.683Z,100274.44
2022-10-14T22:22:11.496Z,100276.09
2022-10-14T22:24:40.295Z,100266.50
2022-10-14T22:27:09.021Z,100276.66
2022-10-14T22:29:37.911Z,100275.13
2022-10-14T22:32:06.741Z,100271.94
2022-10-14T22:34:35.308Z,100271.50
2022-10-14T22:37:04.018Z,100268.47
2022-10-14T22:39:34.342Z,100263.84
2022-10-14T22:42:02.875Z,100267.19
2022-10-14T22:44:31.614Z,100275.94
2022-10-14T22:47:00.359Z,100274.00
2022-10-14T22:49:30.035Z,100263.28
2022-10-14T22:51:58.821Z,100265.63
2022-10-14T22:54:27.745Z,100262.31
2022-10-14T22:56:58.086Z,100263.00
2022-10-14T22:59:26.929Z,100266.19
2022-10-14T23:01:55.557Z,100271.47
2022-10-14T23:04:24.364Z,100269.25
2022-10-14T23:06:55.475Z,100267.69
2022-10-14T23:09:24.328Z,100267.16
2022-10-14T23:11:53.309Z,100268.66
2022-10-14T23:14:23.503Z,100274.91
2022-10-14T23:16:51.875Z,100273.66
2022-10-14T23:19:20.756Z,100267.41
2022-10-14T23:21:49.649Z,100271.44
2022-10-14T23:24:18.446Z,100268.81
2022-10-14T23:26:47.259Z,100263.78
2022-10-14T23:29:15.918Z,100274.63
2022-10-14T23:31:45.799Z,100267.41
2022-10-14T23:34:15.545Z,100270.03
2022-10-14T23:36:44.418Z,100261.44
2022-10-14T23:39:13.267Z,100261.00
2022-10-14T23:41:42.019Z,100266.28
2022-10-14T23:44:12.122Z,100259.16
2022-10-14T23:46:41.374Z,100266.69
2022-10-14T23:49:25.406Z,100259.59
2022-10-14T23:51:55.387Z,100261.41
2022-10-14T23:54:24.323Z,100265.28
2022-10-14T23:56:53.542Z,100260.13
2022-10-14T23:59:22.571Z,100256.78
